Time;durP1;ratioP1;P1;durP2;ratioP2;P2;SDS_P1;SDS_P2;PMS_P1;PMS_P2;Temp;Humidity;BMP_temperature;BMP_pressure;BME280_temperature;BME280_humidity;BME280_pressure;Samples;Min_cycle;Max_cycle;Signal;HPM_P1;HPM_P2
2023/07/26 00:00:35;;;;;;;7.35;4.85;;;19.90;99.90;;;;;;5076361;28;20230;-66
2023/07/26 00:03:24;;;;;;;7.68;4.60;;;20.00;99.90;;;;;;5081699;28;20219;-66
2023/07/26 00:06:15;;;;;;;7.45;4.70;;;19.90;99.90;;;;;;5079696;28;20224;-67
2023/07/26 00:09:04;;;;;;;5.20;4.28;;;19.90;99.90;;;;;;5070983;28;20220;-67
2023/07/26 00:11:53;;;;;;;7.07;4.97;;;19.80;99.90;;;;;;5066265;28;20238;-67
2023/07/26 00:14:43;;;;;;;8.40;4.70;;;19.80;99.90;;;;;;5074697;28;20219;-68
2023/07/26 00:17:32;;;;;;;6.38;4.63;;;19.80;99.90;;;;;;5077307;28;20242;-67
2023/07/26 00:20:21;;;;;;;6.28;4.75;;;19.70;99.90;;;;;;5075034;28;20246;-67
2023/07/26 00:23:11;;;;;;;9.07;5.30;;;19.80;99.90;;;;;;5079463;28;20216;-68
2023/07/26 00:26:00;;;;;;;9.43;5.10;;;19.80;99.90;;;;;;5077969;28;20223;-67
2023/07/26 00:28:49;;;;;;;6.97;4.57;;;19.70;99.90;;;;;;5081957;28;20220;-67
2023/07/26 00:31:39;;;;;;;11.45;4.88;;;19.80;99.90;;;;;;5072285;28;20391;-67
2023/07/26 00:34:29;;;;;;;8.75;5.03;;;19.80;99.90;;;;;;5064558;28;20315;-68
2023/07/26 00:37:18;;;;;;;8.25;4.63;;;19.80;99.90;;;;;;5060393;28;20644;-68
2023/07/26 00:40:10;;;;;;;5.93;4.53;;;19.80;99.90;;;;;;5054103;28;20227;-70
2023/07/26 00:42:59;;;;;;;8.73;4.38;;;19.90;99.90;;;;;;5077294;28;20224;-71
2023/07/26 00:45:51;;;;;;;9.02;4.93;;;19.90;99.90;;;;;;5065518;28;20227;-68
2023/07/26 00:48:43;;;;;;;10.23;4.43;;;19.80;99.90;;;;;;5077987;28;20228;-69
2023/07/26 00:51:34;;;;;;;10.27;5.00;;;19.90;99.90;;;;;;5066305;28;20220;-70
2023/07/26 00:54:23;;;;;;;7.70;4.07;;;19.90;99.90;;;;;;5064330;28;20715;-70
2023/07/26 00:57:14;;;;;;;5.68;4.28;;;19.90;99.90;;;;;;5073510;28;20249;-69
2023/07/26 01:00:03;;;;;;;5.38;4.30;;;19.90;99.90;;;;;;5058741;28;20239;-69
2023/07/26 01:02:57;;;;;;;5.38;4.22;;;19.90;99.90;;;;;;5057080;28;20236;-69
2023/07/26 01:06:01;;;;;;;6.47;4.22;;;19.70;99.90;;;;;;5053003;28;21370;-70
2023/07/26 01:09:01;;;;;;;6.93;3.78;;;19.70;99.90;;;;;;5064604;28;20223;-70
2023/07/26 01:12:01;;;;;;;5.55;4.10;;;19.80;99.90;;;;;;5057643;28;20243;-69
2023/07/26 01:14:55;;;;;;;9.07;4.10;;;19.60;99.90;;;;;;5071982;28;20223;-70
2023/07/26 01:17:46;;;;;;;5.75;3.30;;;19.40;99.90;;;;;;5074715;28;20242;-67
2023/07/26 01:20:35;;;;;;;6.53;3.22;;;19.40;99.90;;;;;;5076780;28;20689;-68
2023/07/26 01:23:26;;;;;;;6.45;3.70;;;19.10;99.90;;;;;;5058538;28;20374;-67
2023/07/26 01:26:15;;;;;;;7.53;3.25;;;19.20;99.90;;;;;;5063956;28;20235;-67
2023/07/26 01:29:04;;;;;;;4.32;2.58;;;19.00;99.90;;;;;;5071382;28;21096;-68
2023/07/26 01:31:54;;;;;;;3.15;2.47;;;18.90;99.90;;;;;;5064993;28;20279;-68
2023/07/26 01:34:43;;;;;;;4.82;2.65;;;19.00;99.90;;;;;;5073122;28;20235;-69
2023/07/26 01:37:32;;;;;;;7.78;3.08;;;18.90;99.90;;;;;;5079515;28;20219;-67
2023/07/26 01:40:24;;;;;;;7.28;3.40;;;18.90;99.90;;;;;;5070405;28;21029;-67
2023/07/26 01:43:14;;;;;;;6.32;3.17;;;19.00;99.90;;;;;;5061278;28;20229;-69
2023/07/26 01:46:04;;;;;;;4.57;3.10;;;19.10;99.90;;;;;;5056941;28;20237;-69
2023/07/26 01:48:56;;;;;;;4.82;3.13;;;19.00;99.90;;;;;;5066914;28;20214;-69
2023/07/26 01:51:45;;;;;;;5.35;3.15;;;19.20;99.90;;;;;;5059540;28;20332;-68
2023/07/26 01:54:34;;;;;;;4.15;3.08;;;19.20;99.90;;;;;;5064782;28;20685;-68
2023/07/26 01:57:25;;;;;;;7.03;3.38;;;19.10;99.90;;;;;;5061682;28;20231;-70
2023/07/26 02:00:15;;;;;;;4.50;3.08;;;19.10;99.90;;;;;;5066578;28;20227;-69
2023/07/26 02:03:04;;;;;;;3.55;2.85;;;19.10;99.90;;;;;;5072087;28;20595;-69
2023/07/26 02:05:54;;;;;;;6.80;3.70;;;19.00;99.90;;;;;;5076041;28;20212;-67
2023/07/26 02:08:43;;;;;;;4.07;3.45;;;19.00;99.90;;;;;;5072229;28;20731;-69
2023/07/26 02:11:32;;;;;;;6.85;3.90;;;19.00;99.90;;;;;;5063742;28;20706;-68
2023/07/26 02:14:24;;;;;;;4.90;3.40;;;19.00;99.90;;;;;;5053988;28;20236;-66
2023/07/26 02:17:13;;;;;;;6.65;3.83;;;19.00;99.90;;;;;;5079700;28;20634;-66
2023/07/26 02:20:11;;;;;;;5.63;4.30;;;19.00;99.90;;;;;;5078997;28;20246;-68
2023/07/26 02:23:00;;;;;;;10.23;4.10;;;19.00;99.90;;;;;;5075793;28;20388;-67
2023/07/26 02:25:50;;;;;;;10.43;4.55;;;19.10;99.90;;;;;;5075374;28;20580;-66
2023/07/26 02:28:41;;;;;;;6.90;4.18;;;19.10;99.90;;;;;;5075479;28;20416;-67
2023/07/26 02:31:31;;;;;;;5.72;4.10;;;19.00;99.90;;;;;;5048139;28;20236;-66
2023/07/26 02:34:21;;;;;;;9.15;4.32;;;19.10;99.90;;;;;;5074780;28;20740;-69
2023/07/26 02:37:10;;;;;;;8.43;4.20;;;19.00;99.90;;;;;;5058224;28;21009;-68
2023/07/26 02:39:59;;;;;;;6.25;3.97;;;19.00;99.90;;;;;;5073959;28;20294;-68
2023/07/26 02:42:48;;;;;;;7.63;3.92;;;19.00;99.90;;;;;;5077975;28;20598;-68
2023/07/26 02:45:40;;;;;;;5.97;3.78;;;18.90;99.90;;;;;;5060506;28;20232;-68
2023/07/26 02:48:31;;;;;;;7.68;3.90;;;19.00;99.90;;;;;;5054709;28;20220;-68
2023/07/26 02:51:20;;;;;;;4.85;3.35;;;19.00;99.90;;;;;;5073537;28;20259;-68
2023/07/26 02:54:09;;;;;;;4.57;3.25;;;19.00;99.90;;;;;;5059018;28;20258;-69
2023/07/26 02:56:58;;;;;;;5.45;3.72;;;19.00;99.90;;;;;;5073221;28;20319;-68
2023/07/26 02:59:48;;;;;;;5.85;3.80;;;18.90;99.90;;;;;;5054773;28;20228;-69
2023/07/26 03:02:37;;;;;;;5.70;3.65;;;18.90;99.90;;;;;;5056870;28;20211;-67
2023/07/26 03:05:30;;;;;;;5.75;3.85;;;19.00;99.90;;;;;;5068069;28;20232;-66
2023/07/26 03:08:19;;;;;;;6.82;3.60;;;19.10;99.90;;;;;;5069691;28;20223;-68
2023/07/26 03:11:08;;;;;;;4.85;3.60;;;19.00;99.90;;;;;;5070617;28;20519;-67
2023/07/26 03:13:57;;;;;;;5.32;3.60;;;18.80;99.90;;;;;;5068222;28;20298;-68
2023/07/26 03:16:47;;;;;;;10.02;4.38;;;18.90;99.90;;;;;;5075404;28;20216;-68
2023/07/26 03:19:36;;;;;;;6.53;4.10;;;18.90;99.90;;;;;;5078705;28;20305;-68
2023/07/26 03:22:26;;;;;;;5.97;3.92;;;19.00;99.90;;;;;;5066371;28;20359;-67
2023/07/26 03:25:16;;;;;;;6.43;4.28;;;19.00;99.90;;;;;;5076585;28;20231;-68
2023/07/26 03:28:05;;;;;;;6.60;4.13;;;18.90;99.90;;;;;;5064641;28;20630;-68
2023/07/26 03:30:54;;;;;;;5.78;4.18;;;18.80;99.90;;;;;;5071573;28;20707;-68
2023/07/26 03:33:43;;;;;;;8.93;4.40;;;18.90;99.90;;;;;;5057368;28;20219;-68
2023/07/26 03:36:32;;;;;;;5.68;3.95;;;18.90;99.90;;;;;;5071775;28;20708;-67
2023/07/26 03:39:24;;;;;;;6.07;4.57;;;18.90;99.90;;;;;;5071057;28;20232;-69
2023/07/26 03:42:13;;;;;;;4.60;3.58;;;18.90;99.90;;;;;;5055576;28;20236;-69
2023/07/26 03:45:03;;;;;;;5.18;3.50;;;18.90;99.90;;;;;;5075191;28;20684;-69
2023/07/26 03:47:52;;;;;;;5.53;3.70;;;18.90;99.90;;;;;;5075576;28;20219;-69
2023/07/26 03:50:41;;;;;;;5.93;3.80;;;19.00;99.90;;;;;;5059967;28;20216;-69
2023/07/26 03:53:30;;;;;;;6.03;3.92;;;18.90;99.90;;;;;;5052159;28;20263;-69
2023/07/26 03:56:21;;;;;;;6.70;3.40;;;18.90;99.90;;;;;;5068255;28;20219;-70
2023/07/26 03:59:10;;;;;;;7.07;3.42;;;18.90;99.90;;;;;;5070642;28;20223;-68
2023/07/26 04:02:01;;;;;;;4.28;3.05;;;18.90;99.90;;;;;;5067844;28;20319;-68
2023/07/26 04:04:50;;;;;;;5.43;3.17;;;18.90;99.90;;;;;;5072336;28;20890;-67
2023/07/26 04:07:40;;;;;;;5.13;2.67;;;19.10;99.90;;;;;;5051735;28;20311;-68
2023/07/26 04:10:29;;;;;;;4.53;2.35;;;19.00;99.90;;;;;;5074401;28;20220;-67
2023/07/26 04:13:21;;;;;;;6.18;2.60;;;19.10;99.90;;;;;;5067621;28;20223;-67
2023/07/26 04:16:15;;;;;;;3.17;2.58;;;18.90;99.90;;;;;;5078271;28;20760;-69
2023/07/26 04:19:04;;;;;;;6.00;2.80;;;19.00;99.90;;;;;;5075876;28;20783;-71
2023/07/26 04:21:53;;;;;;;4.18;2.55;;;19.10;99.90;;;;;;5079744;28;20366;-68
2023/07/26 04:24:43;;;;;;;3.33;2.30;;;19.20;99.90;;;;;;5072286;28;20216;-69
2023/07/26 04:27:32;;;;;;;5.90;2.50;;;19.20;99.90;;;;;;5061493;28;20223;-69
2023/07/26 04:30:22;;;;;;;3.63;2.50;;;19.50;99.90;;;;;;5073457;28;20251;-70
2023/07/26 04:33:12;;;;;;;6.28;2.97;;;19.60;99.90;;;;;;5071039;28;20227;-71
2023/07/26 04:36:01;;;;;;;5.57;2.97;;;19.80;99.90;;;;;;5072806;28;20232;-69
2023/07/26 04:38:50;;;;;;;5.50;2.53;;;19.90;99.90;;;;;;5066844;28;20326;-70
2023/07/26 04:41:40;;;;;;;4.40;2.65;;;19.90;99.90;;;;;;5063083;28;20212;-69
2023/07/26 04:44:29;;;;;;;5.55;2.53;;;20.00;99.90;;;;;;5072736;28;20764;-70
2023/07/26 04:47:22;;;;;;;4.03;3.15;;;20.00;99.90;;;;;;5082608;28;20227;-69
2023/07/26 04:50:11;;;;;;;5.38;2.63;;;20.00;99.90;;;;;;5075053;28;20369;-70
2023/07/26 04:53:00;;;;;;;5.93;2.83;;;20.00;99.90;;;;;;5078398;28;20250;-70
2023/07/26 04:55:51;;;;;;;3.75;2.15;;;20.00;99.90;;;;;;5058141;28;20293;-72
2023/07/26 04:58:41;;;;;;;5.20;2.20;;;19.90;99.90;;;;;;5061011;28;20571;-72
2023/07/26 05:01:30;;;;;;;5.75;2.05;;;19.90;99.90;;;;;;5076714;28;20310;-71
2023/07/26 05:04:21;;;;;;;5.15;2.30;;;19.80;99.90;;;;;;5077577;28;20627;-69
2023/07/26 05:07:10;;;;;;;4.40;2.53;;;20.10;99.90;;;;;;5055792;28;20228;-69
2023/07/26 05:09:59;;;;;;;2.88;1.92;;;20.10;99.90;;;;;;5080493;28;20239;-68
2023/07/26 05:12:48;;;;;;;2.70;2.05;;;20.10;99.90;;;;;;5071741;28;20216;-69
2023/07/26 05:15:37;;;;;;;3.72;2.20;;;20.40;99.90;;;;;;5061859;28;20223;-68
2023/07/26 05:18:26;;;;;;;6.35;1.85;;;20.40;99.90;;;;;;5060447;28;20227;-68
2023/07/26 05:21:17;;;;;;;3.08;1.73;;;20.10;99.90;;;;;;5074091;28;20211;-68
2023/07/26 05:24:06;;;;;;;2.75;1.38;;;20.40;99.90;;;;;;5079287;28;20291;-68
2023/07/26 05:26:55;;;;;;;5.90;1.70;;;20.50;99.90;;;;;;5070450;28;21243;-68
2023/07/26 05:29:45;;;;;;;1.60;1.42;;;20.80;99.90;;;;;;5060642;28;20238;-68
2023/07/26 05:32:34;;;;;;;2.17;1.38;;;20.80;99.90;;;;;;5069906;28;20328;-68
2023/07/26 05:35:24;;;;;;;3.08;1.48;;;20.90;99.90;;;;;;5071303;28;20228;-71
2023/07/26 05:38:15;;;;;;;4.78;1.70;;;22.40;99.90;;;;;;5074117;28;20231;-72
2023/07/26 05:41:05;;;;;;;2.17;1.52;;;24.00;99.00;;;;;;5069580;28;20300;-71
2023/07/26 05:43:54;;;;;;;4.07;1.95;;;24.20;97.90;;;;;;5061158;28;20384;-70
2023/07/26 05:46:43;;;;;;;3.85;1.50;;;22.30;99.90;;;;;;5063827;28;20598;-71
2023/07/26 05:49:32;;;;;;;3.28;1.35;;;21.60;99.90;;;;;;5073115;28;20262;-70
2023/07/26 05:52:22;;;;;;;1.92;1.50;;;21.00;99.90;;;;;;5064972;28;20600;-70
2023/07/26 05:55:13;;;;;;;3.85;1.75;;;21.00;99.90;;;;;;5062865;28;20215;-71
2023/07/26 05:58:02;;;;;;;2.60;1.30;;;20.80;99.90;;;;;;5065406;28;20219;-74
2023/07/26 06:00:51;;;;;;;5.53;1.63;;;20.70;99.90;;;;;;5056805;28;20216;-69
2023/07/26 06:03:42;;;;;;;4.05;1.40;;;20.80;99.90;;;;;;5074132;28;20868;-77
2023/07/26 06:06:31;;;;;;;5.20;1.48;;;20.70;99.90;;;;;;5060304;28;20234;-72
2023/07/26 06:09:21;;;;;;;2.47;1.20;;;20.60;99.90;;;;;;5073626;28;20219;-72
2023/07/26 06:12:11;;;;;;;4.43;1.10;;;20.70;99.90;;;;;;5050833;28;20900;-73
2023/07/26 06:15:00;;;;;;;1.90;1.30;;;20.70;99.90;;;;;;5071028;28;20231;-72
2023/07/26 06:17:50;;;;;;;2.38;1.27;;;20.60;99.90;;;;;;5064376;28;20231;-72
2023/07/26 06:20:40;;;;;;;3.83;1.40;;;20.60;99.90;;;;;;5073953;28;20247;-72
2023/07/26 06:23:29;;;;;;;1.60;1.27;;;20.50;99.90;;;;;;5068946;28;20252;-73
2023/07/26 06:26:18;;;;;;;3.53;1.52;;;20.30;99.90;;;;;;5051496;28;20224;-72
2023/07/26 06:29:09;;;;;;;3.85;1.48;;;20.40;99.90;;;;;;5077743;28;20227;-72
2023/07/26 06:31:58;;;;;;;4.43;1.40;;;20.50;99.90;;;;;;5071047;28;20691;-71
2023/07/26 06:34:47;;;;;;;3.25;1.30;;;20.80;99.90;;;;;;5058531;28;20721;-71
2023/07/26 06:37:37;;;;;;;2.97;1.35;;;21.20;99.90;;;;;;5069340;28;20425;-71
2023/07/26 06:40:26;;;;;;;2.97;1.50;;;21.90;99.90;;;;;;5071551;28;20227;-73
2023/07/26 06:43:15;;;;;;;3.65;1.80;;;22.20;99.90;;;;;;5052922;28;20265;-72
2023/07/26 06:46:06;;;;;;;5.88;1.50;;;22.30;99.90;;;;;;5071256;28;20247;-73
2023/07/26 06:48:55;;;;;;;3.72;1.30;;;22.10;99.90;;;;;;5042309;28;20658;-72
2023/07/26 06:51:44;;;;;;;5.00;1.58;;;22.00;99.90;;;;;;5052781;28;20663;-72
2023/07/26 06:54:34;;;;;;;4.63;1.50;;;22.00;99.90;;;;;;5075473;28;20693;-72
2023/07/26 06:57:23;;;;;;;6.07;2.55;;;21.90;99.90;;;;;;5064692;28;20224;-72
2023/07/26 07:00:15;;;;;;;6.95;2.35;;;22.30;99.90;;;;;;5072228;28;20745;-72
2023/07/26 07:03:06;;;;;;;4.25;1.83;;;22.00;99.90;;;;;;5055456;28;20251;-73
2023/07/26 07:05:55;;;;;;;3.85;1.60;;;21.80;99.90;;;;;;5065785;28;20715;-73
2023/07/26 07:08:45;;;;;;;6.85;1.90;;;21.80;99.90;;;;;;5065534;28;20224;-71
2023/07/26 07:11:34;;;;;;;3.33;1.65;;;21.70;99.90;;;;;;5069663;28;20223;-72
2023/07/26 07:14:24;;;;;;;5.03;2.20;;;21.70;99.90;;;;;;5065073;28;20246;-72
2023/07/26 07:17:13;;;;;;;3.75;2.08;;;21.70;99.90;;;;;;5065898;28;20821;-73
2023/07/26 07:20:08;;;;;;;4.70;1.83;;;21.80;99.90;;;;;;5059384;28;20265;-71
2023/07/26 07:22:57;;;;;;;3.75;1.70;;;21.50;99.90;;;;;;5055760;28;20227;-73
2023/07/26 07:25:46;;;;;;;5.22;2.15;;;22.20;99.90;;;;;;5069592;28;20439;-71
2023/07/26 07:28:35;;;;;;;4.78;2.00;;;23.10;99.90;;;;;;5059337;28;20232;-72
2023/07/26 07:31:25;;;;;;;8.52;1.67;;;23.30;99.90;;;;;;5066615;28;20312;-72
2023/07/26 07:34:14;;;;;;;5.38;1.80;;;23.00;99.90;;;;;;5074776;28;20247;-71
2023/07/26 07:37:05;;;;;;;4.88;2.10;;;22.40;99.90;;;;;;5070608;28;20236;-71
2023/07/26 07:39:54;;;;;;;5.55;2.08;;;22.20;99.90;;;;;;5067423;28;20307;-70
2023/07/26 07:42:43;;;;;;;7.00;2.30;;;22.40;99.90;;;;;;5070493;28;20215;-72
2023/07/26 07:45:33;;;;;;;3.90;2.17;;;22.40;99.90;;;;;;5076262;28;20220;-72
2023/07/26 07:48:22;;;;;;;8.38;2.55;;;22.60;99.90;;;;;;5063862;28;20223;-73
2023/07/26 07:51:11;;;;;;;6.65;1.88;;;22.40;99.90;;;;;;5067024;28;20215;-72
2023/07/26 07:54:02;;;;;;;4.95;2.40;;;22.50;99.90;;;;;;5078110;28;20388;-72
2023/07/26 07:56:51;;;;;;;5.38;1.83;;;22.20;99.90;;;;;;5073724;28;20690;-72
2023/07/26 07:59:40;;;;;;;8.05;2.10;;;22.20;99.90;;;;;;5076842;28;20227;-72
2023/07/26 08:02:30;;;;;;;6.78;2.10;;;22.30;99.90;;;;;;5075512;28;20223;-71
2023/07/26 08:05:20;;;;;;;6.90;2.75;;;22.10;99.90;;;;;;5063359;28;20247;-71
2023/07/26 08:08:09;;;;;;;5.25;2.55;;;22.40;99.90;;;;;;5072420;28;20644;-71
2023/07/26 08:11:02;;;;;;;6.05;1.95;;;22.40;99.90;;;;;;5066054;28;20590;-71
2023/07/26 08:13:51;;;;;;;4.45;2.00;;;22.40;99.90;;;;;;5080187;28;20227;-71
2023/07/26 08:16:40;;;;;;;5.03;1.92;;;22.60;99.90;;;;;;5072415;28;20250;-71
2023/07/26 08:19:30;;;;;;;4.05;2.40;;;23.00;99.90;;;;;;5072843;28;20385;-71
2023/07/26 08:22:19;;;;;;;4.38;2.05;;;23.20;99.90;;;;;;5072569;28;20220;-72
2023/07/26 08:25:10;;;;;;;3.53;1.90;;;22.90;99.90;;;;;;5055679;28;20228;-72
2023/07/26 08:28:00;;;;;;;4.45;2.03;;;22.70;99.90;;;;;;5073259;28;20211;-71
2023/07/26 08:30:49;;;;;;;5.65;2.13;;;22.90;99.90;;;;;;5072288;28;20305;-72
2023/07/26 08:33:39;;;;;;;6.13;2.08;;;23.10;99.90;;;;;;5076359;28;20215;-72
2023/07/26 08:36:29;;;;;;;3.78;2.20;;;23.20;99.90;;;;;;5064285;28;20273;-72
2023/07/26 08:39:18;;;;;;;2.22;1.65;;;23.50;99.90;;;;;;5069133;28;20224;-72
2023/07/26 08:42:23;;;;;;;4.82;2.10;;;23.20;99.90;;;;;;5065284;28;20220;-73
2023/07/26 08:45:14;;;;;;;3.15;2.10;;;23.10;99.90;;;;;;5079586;28;20231;-73
2023/07/26 08:48:04;;;;;;;4.45;2.17;;;22.70;99.90;;;;;;5075973;28;20227;-73
2023/07/26 08:50:54;;;;;;;4.60;2.10;;;22.90;99.90;;;;;;5054892;28;20303;-72
2023/07/26 08:53:44;;;;;;;5.80;1.83;;;23.10;99.90;;;;;;5067292;28;20223;-71
2023/07/26 08:56:34;;;;;;;5.03;2.30;;;23.00;99.90;;;;;;5069706;28;20593;-71
2023/07/26 08:59:24;;;;;;;6.65;1.92;;;22.60;99.90;;;;;;5052732;28;20227;-72
2023/07/26 09:02:17;;;;;;;7.65;2.10;;;22.60;99.90;;;;;;5052731;28;20560;-71
2023/07/26 09:05:07;;;;;;;8.43;3.08;;;22.80;99.90;;;;;;5046123;28;20254;-74
2023/07/26 09:07:57;;;;;;;5.95;3.05;;;22.80;99.90;;;;;;5048715;28;20307;-72
2023/07/26 09:10:46;;;;;;;5.63;2.50;;;23.00;99.90;;;;;;5048460;28;20315;-75
2023/07/26 09:13:35;;;;;;;5.25;2.00;;;22.60;99.90;;;;;;5039589;28;20243;-74
2023/07/26 09:16:27;;;;;;;4.20;2.15;;;22.20;99.90;;;;;;5042698;28;20907;-75
2023/07/26 09:19:17;;;;;;;2.88;1.50;;;22.40;99.90;;;;;;5032980;28;20216;-74
2023/07/26 09:22:09;;;;;;;5.22;2.03;;;22.60;99.90;;;;;;5041670;28;20224;-74
2023/07/26 09:24:58;;;;;;;4.32;1.90;;;22.70;99.90;;;;;;5053365;28;20583;-74
2023/07/26 09:27:55;;;;;;;3.15;1.83;;;22.60;99.90;;;;;;5036123;28;20244;-74
2023/07/26 09:30:46;;;;;;;5.32;2.00;;;22.40;99.90;;;;;;5048490;28;20220;-76
2023/07/26 09:33:36;;;;;;;3.70;1.48;;;22.30;99.90;;;;;;5056451;28;20246;-75
2023/07/26 09:36:26;;;;;;;6.35;2.08;;;22.40;99.90;;;;;;5057382;28;20224;-76
2023/07/26 09:39:17;;;;;;;4.78;1.65;;;22.10;99.10;;;;;;5053839;28;20561;-75
2023/07/26 09:42:08;;;;;;;4.35;1.83;;;22.30;99.90;;;;;;5053883;28;20224;-76
2023/07/26 09:44:58;;;;;;;5.80;2.30;;;22.50;99.60;;;;;;5051306;28;20230;-77
2023/07/26 09:47:48;;;;;;;5.55;2.00;;;22.60;99.90;;;;;;5056360;28;20696;-76
2023/07/26 09:50:53;;;;;;;6.60;2.03;;;22.70;99.90;;;;;;5039096;28;20220;-77
2023/07/26 09:53:45;;;;;;;5.78;2.05;;;22.80;99.90;;;;;;5036286;28;20228;-74
2023/07/26 09:56:34;;;;;;;9.60;2.10;;;22.80;99.90;;;;;;5055365;28;20577;-75
2023/07/26 09:59:27;;;;;;;3.47;2.10;;;22.80;99.90;;;;;;5077117;28;20227;-76
2023/07/26 10:02:17;;;;;;;5.28;2.08;;;22.60;99.90;;;;;;5072065;28;20235;-75
2023/07/26 10:05:13;;;;;;;6.85;2.05;;;22.50;99.90;;;;;;5072627;28;20330;-75
2023/07/26 10:08:02;;;;;;;7.63;2.10;;;22.00;99.90;;;;;;5065598;28;20814;-75
2023/07/26 10:10:56;;;;;;;4.18;1.63;;;22.00;99.90;;;;;;5062096;28;20384;-75
2023/07/26 10:13:47;;;;;;;5.75;1.77;;;21.80;99.90;;;;;;5072631;28;20231;-69
2023/07/26 10:16:37;;;;;;;7.03;2.05;;;21.70;99.90;;;;;;5075466;28;20762;-71
2023/07/26 10:19:29;;;;;;;4.60;2.67;;;21.60;99.90;;;;;;5071923;28;20927;-73
2023/07/26 10:22:19;;;;;;;6.35;1.88;;;21.70;99.90;;;;;;5071069;28;20223;-72
2023/07/26 10:25:08;;;;;;;3.05;1.88;;;21.70;99.90;;;;;;5075361;28;20231;-73
2023/07/26 10:27:59;;;;;;;7.47;2.00;;;21.60;99.20;;;;;;5063192;28;20857;-73
2023/07/26 10:30:49;;;;;;;4.35;1.98;;;21.50;99.70;;;;;;5072052;28;20741;-71
2023/07/26 10:33:45;;;;;;;2.55;1.50;;;21.60;99.50;;;;;;5066980;28;20312;-74
2023/07/26 10:36:36;;;;;;;7.43;1.67;;;21.60;96.70;;;;;;5063930;28;20232;-75
2023/07/26 10:39:32;;;;;;;6.95;1.60;;;21.60;99.20;;;;;;5062164;28;20314;-75
2023/07/26 10:42:23;;;;;;;4.20;1.40;;;21.60;97.10;;;;;;5062451;28;20219;-75
2023/07/26 10:45:39;;;;;;;2.72;1.40;;;21.60;97.50;;;;;;5055767;28;20246;-74
2023/07/26 10:48:31;;;;;;;5.53;1.40;;;21.60;99.30;;;;;;5058294;28;20230;-74
2023/07/26 10:51:25;;;;;;;3.72;1.40;;;21.50;96.80;;;;;;5057357;28;20361;-74
2023/07/26 10:54:33;;;;;;;6.47;1.77;;;21.40;97.50;;;;;;5071932;28;20215;-76
2023/07/26 10:57:31;;;;;;;3.80;1.75;;;21.40;98.30;;;;;;5062202;28;20231;-76
2023/07/26 11:00:34;;;;;;;4.18;1.75;;;21.30;98.10;;;;;;5068721;28;20331;-75
2023/07/26 11:03:27;;;;;;;6.78;2.03;;;21.30;99.60;;;;;;5059167;28;20230;-76
2023/07/26 11:06:17;;;;;;;4.53;1.80;;;21.40;98.50;;;;;;5061503;28;20721;-75
2023/07/26 11:09:06;;;;;;;7.93;1.95;;;21.40;98.40;;;;;;5070948;28;20681;-72
2023/07/26 11:11:57;;;;;;;6.70;1.90;;;21.40;98.30;;;;;;5070030;28;20224;-73
2023/07/26 11:14:49;;;;;;;4.43;1.55;;;21.40;98.40;;;;;;5072023;28;20235;-80
2023/07/26 11:17:59;;;;;;;3.10;1.50;;;21.40;98.90;;;;;;5069554;28;20211;-72
2023/07/26 11:20:50;;;;;;;4.65;1.80;;;21.50;99.90;;;;;;5058588;28;20327;-72
2023/07/26 11:23:40;;;;;;;3.58;2.20;;;21.40;98.60;;;;;;5070909;28;20656;-72
2023/07/26 11:26:30;;;;;;;6.70;1.90;;;21.30;98.90;;;;;;5065008;28;20704;-72
2023/07/26 11:29:21;;;;;;;3.22;1.70;;;21.20;99.20;;;;;;5080461;28;20219;-72
2023/07/26 11:32:10;;;;;;;4.55;1.58;;;21.20;97.90;;;;;;5064295;28;20866;-72
2023/07/26 11:35:01;;;;;;;4.90;1.55;;;21.10;97.80;;;;;;5074479;28;20246;-72
2023/07/26 11:37:55;;;;;;;9.13;1.80;;;21.00;99.30;;;;;;5056951;28;20233;-73
2023/07/26 11:40:44;;;;;;;5.30;1.60;;;21.00;98.30;;;;;;5075040;28;20867;-73
2023/07/26 11:43:33;;;;;;;5.80;1.63;;;21.00;99.90;;;;;;5076662;28;20247;-72
2023/07/26 11:46:27;;;;;;;4.50;1.50;;;20.90;99.20;;;;;;5067600;28;20235;-72
2023/07/26 11:49:21;;;;;;;5.57;1.67;;;20.80;98.50;;;;;;5063317;28;20393;-71
2023/07/26 11:52:15;;;;;;;5.15;1.80;;;20.80;99.90;;;;;;5077731;28;20232;-72
2023/07/26 11:55:06;;;;;;;3.20;1.42;;;20.90;99.90;;;;;;5069988;28;20290;-73
2023/07/26 11:57:55;;;;;;;5.97;1.70;;;20.80;99.90;;;;;;5062485;28;20231;-72
2023/07/26 12:00:46;;;;;;;3.55;1.65;;;20.70;99.90;;;;;;5054286;28;20283;-70
2023/07/26 12:03:37;;;;;;;4.43;1.80;;;20.40;99.90;;;;;;5051841;28;20217;-70
2023/07/26 12:06:33;;;;;;;8.43;1.90;;;20.30;99.90;;;;;;5054531;28;20239;-74
2023/07/26 12:09:23;;;;;;;5.07;1.90;;;20.20;99.90;;;;;;5057811;28;20224;-74
2023/07/26 12:12:13;;;;;;;7.78;2.00;;;20.20;99.90;;;;;;5041161;28;20231;-74
2023/07/26 12:15:05;;;;;;;12.23;2.40;;;20.10;99.90;;;;;;5054619;28;20224;-73
2023/07/26 12:17:55;;;;;;;9.68;2.58;;;20.10;99.90;;;;;;5050571;28;20243;-73
2023/07/26 12:20:57;;;;;;;8.68;2.40;;;20.00;99.90;;;;;;5048194;28;20426;-73
2023/07/26 12:23:54;;;;;;;5.45;2.47;;;19.90;99.90;;;;;;5054875;28;20243;-74
2023/07/26 12:26:47;;;;;;;7.50;2.85;;;19.80;99.90;;;;;;5042247;28;20228;-72
2023/07/26 12:29:38;;;;;;;8.75;2.58;;;19.60;99.90;;;;;;5050165;28;20320;-71
2023/07/26 12:32:27;;;;;;;5.78;2.50;;;19.60;99.90;;;;;;5055645;28;20232;-70
2023/07/26 12:35:21;;;;;;;6.15;2.70;;;19.50;99.90;;;;;;5044081;28;20229;-71
2023/07/26 12:38:11;;;;;;;5.45;2.92;;;19.40;99.90;;;;;;5037986;28;20710;-71
2023/07/26 12:41:00;;;;;;;7.10;3.35;;;19.50;99.90;;;;;;5050461;28;20605;-72
2023/07/26 12:43:55;;;;;;;7.07;3.15;;;19.40;99.90;;;;;;5048150;28;20232;-71
2023/07/26 12:46:46;;;;;;;8.05;3.83;;;19.20;99.90;;;;;;5053015;28;20217;-76
2023/07/26 12:49:41;;;;;;;5.65;3.08;;;19.20;99.90;;;;;;5053723;28;20248;-75
2023/07/26 12:52:30;;;;;;;8.20;3.65;;;19.30;99.90;;;;;;5043045;28;20236;-75
2023/07/26 12:55:20;;;;;;;14.90;4.22;;;18.90;99.90;;;;;;5052729;28;20224;-72
2023/07/26 12:58:09;;;;;;;8.85;3.95;;;19.00;99.90;;;;;;5064997;28;20698;-71
2023/07/26 13:01:00;;;;;;;8.38;3.70;;;19.10;99.90;;;;;;5074227;28;20257;-70
2023/07/26 13:03:49;;;;;;;8.63;4.40;;;18.90;99.90;;;;;;5069196;28;20227;-69
2023/07/26 13:06:39;;;;;;;8.85;4.50;;;18.80;99.90;;;;;;5067211;28;20714;-70
2023/07/26 13:09:28;;;;;;;9.80;4.80;;;18.70;99.90;;;;;;5072558;28;20223;-70
2023/07/26 13:12:17;;;;;;;9.10;4.72;;;18.60;99.90;;;;;;5072250;28;20232;-70
2023/07/26 13:15:07;;;;;;;8.88;4.78;;;18.70;99.90;;;;;;5058857;28;20312;-70
2023/07/26 13:17:57;;;;;;;9.65;5.75;;;18.60;99.90;;;;;;5059046;28;20220;-70
2023/07/26 13:20:47;;;;;;;8.02;4.90;;;18.70;99.90;;;;;;5074477;28;20352;-70
2023/07/26 13:23:36;;;;;;;8.98;5.32;;;18.60;99.90;;;;;;5069559;28;20223;-71
2023/07/26 13:26:29;;;;;;;8.85;5.18;;;18.40;99.90;;;;;;5071438;28;20273;-69
2023/07/26 13:29:19;;;;;;;9.27;4.90;;;18.20;99.90;;;;;;5066371;28;20276;-72
2023/07/26 13:32:09;;;;;;;11.15;4.40;;;18.30;99.90;;;;;;5073996;28;20264;-72
2023/07/26 13:34:59;;;;;;;8.85;4.50;;;18.20;99.90;;;;;;5073228;28;20420;-71
2023/07/26 13:37:48;;;;;;;8.02;4.43;;;18.30;99.90;;;;;;5070188;28;20242;-71
2023/07/26 13:40:37;;;;;;;12.13;5.28;;;18.30;99.90;;;;;;5070035;28;20571;-72
2023/07/26 13:43:28;;;;;;;13.32;6.30;;;18.30;99.90;;;;;;5059261;28;20254;-71
2023/07/26 13:46:17;;;;;;;11.23;6.10;;;18.40;99.90;;;;;;5064938;28;20235;-71
2023/07/26 13:49:12;;;;;;;8.25;4.97;;;18.30;99.90;;;;;;5057937;28;20235;-71
2023/07/26 13:52:03;;;;;;;8.90;5.18;;;18.30;99.90;;;;;;5075346;28;20242;-72
2023/07/26 13:54:53;;;;;;;8.93;5.00;;;18.40;99.90;;;;;;5067138;28;20216;-74
2023/07/26 13:57:42;;;;;;;8.70;5.03;;;18.30;99.90;;;;;;5058166;28;20330;-71
2023/07/26 14:00:31;;;;;;;9.35;5.50;;;18.30;99.90;;;;;;5068871;28;20250;-71
2023/07/26 14:03:20;;;;;;;8.10;5.45;;;18.20;99.90;;;;;;5072645;28;20224;-74
2023/07/26 14:06:09;;;;;;;8.88;5.25;;;18.20;99.90;;;;;;5059422;28;20227;-75
2023/07/26 14:09:01;;;;;;;12.93;5.60;;;18.20;99.90;;;;;;5074178;28;20347;-75
2023/07/26 14:11:50;;;;;;;10.75;5.18;;;18.20;99.90;;;;;;5075156;28;20228;-76
2023/07/26 14:14:41;;;;;;;9.90;5.30;;;18.10;99.90;;;;;;5079644;28;20781;-75
2023/07/26 14:17:31;;;;;;;8.40;5.00;;;18.30;99.90;;;;;;5053724;28;20465;-75
2023/07/26 14:20:20;;;;;;;9.57;5.18;;;18.30;99.90;;;;;;5055647;28;20228;-74
2023/07/26 14:23:09;;;;;;;10.13;4.90;;;18.30;99.90;;;;;;5079145;28;20543;-74
2023/07/26 14:26:00;;;;;;;8.80;4.97;;;18.10;99.90;;;;;;5075944;28;20220;-71
2023/07/26 14:28:50;;;;;;;8.30;5.03;;;18.00;99.90;;;;;;5055530;28;20228;-72
2023/07/26 14:31:42;;;;;;;9.43;4.80;;;17.90;99.90;;;;;;5068245;28;20216;-71
2023/07/26 14:34:31;;;;;;;6.55;4.35;;;17.90;99.90;;;;;;5059936;28;20219;-75
2023/07/26 14:37:21;;;;;;;8.95;4.53;;;17.90;99.90;;;;;;5066885;28;20220;-71
2023/07/26 14:40:11;;;;;;;7.15;4.40;;;17.90;99.90;;;;;;5059050;28;20234;-72
2023/07/26 14:43:02;;;;;;;12.90;5.78;;;17.90;99.90;;;;;;5070180;28;20226;-75
2023/07/26 14:45:51;;;;;;;10.50;4.68;;;17.80;99.90;;;;;;5054384;28;20230;-73